Time;durP1;ratioP1;P1;durP2;ratioP2;P2;SDS_P1;SDS_P2;PMS_P1;PMS_P2;Temp;Humidity;BMP_temperature;BMP_pressure;BME280_temperature;BME280_humidity;BME280_pressure;Samples;Min_cycle;Max_cycle;Signal;HPM_P1;HPM_P2
2021/08/24 00:00:28;;;;;;;3.63;2.70;;;18.30;99.90;;;;;;5022664;28;20341;-70
2021/08/24 00:02:55;;;;;;;4.63;3.00;;;18.30;99.90;;;;;;5024719;28;20237;-69
2021/08/24 00:05:28;;;;;;;2.87;2.67;;;18.30;99.90;;;;;;5020363;28;20476;-69
2021/08/24 00:07:56;;;;;;;3.40;3.10;;;18.30;99.90;;;;;;5028861;28;20468;-69
2021/08/24 00:10:24;;;;;;;3.30;3.00;;;18.30;99.90;;;;;;5005254;28;20476;-69
2021/08/24 00:12:50;;;;;;;3.57;3.00;;;18.30;99.90;;;;;;4983868;28;20476;-69
2021/08/24 00:15:17;;;;;;;3.93;3.53;;;18.20;99.90;;;;;;4985559;28;20525;-70
2021/08/24 00:17:43;;;;;;;3.10;2.80;;;18.20;99.90;;;;;;4983142;28;21017;-69
2021/08/24 00:20:09;;;;;;;3.87;3.37;;;18.20;99.90;;;;;;4978542;28;20550;-69
2021/08/24 00:22:37;;;;;;;3.80;2.33;;;18.20;99.90;;;;;;4996086;28;20218;-70
2021/08/24 00:25:06;;;;;;;4.37;2.63;;;18.10;99.90;;;;;;5015468;28;20493;-68
2021/08/24 00:27:31;;;;;;;2.83;2.60;;;18.10;99.90;;;;;;5001742;28;20658;-70
2021/08/24 00:29:57;;;;;;;2.63;2.43;;;18.10;99.90;;;;;;4984918;28;21045;-68
2021/08/24 00:32:23;;;;;;;2.53;2.33;;;18.10;99.90;;;;;;4996274;28;20734;-69
2021/08/24 00:34:48;;;;;;;4.93;2.70;;;18.00;99.90;;;;;;4999614;28;20225;-68
2021/08/24 00:37:14;;;;;;;3.30;2.70;;;18.00;99.90;;;;;;4996817;28;20228;-70
2021/08/24 00:39:40;;;;;;;2.73;2.50;;;17.90;99.90;;;;;;4998958;28;20597;-69
2021/08/24 00:42:13;;;;;;;3.20;2.60;;;17.90;99.90;;;;;;4978760;28;20477;-70
2021/08/24 00:44:38;;;;;;;2.90;2.63;;;17.90;99.90;;;;;;5016967;28;20218;-69
2021/08/24 00:47:04;;;;;;;2.70;2.50;;;17.90;99.90;;;;;;4986560;28;20957;-69
2021/08/24 00:49:30;;;;;;;2.30;2.10;;;17.90;99.90;;;;;;4971422;28;20225;-70
2021/08/24 00:52:08;;;;;;;2.50;2.07;;;17.90;99.90;;;;;;4983860;28;20608;-68
2021/08/24 00:54:34;;;;;;;2.83;2.63;;;17.90;99.90;;;;;;4968117;28;20221;-68
2021/08/24 00:57:07;;;;;;;2.30;2.10;;;17.90;99.90;;;;;;4980636;28;20936;-69
2021/08/24 00:59:33;;;;;;;4.23;2.40;;;17.80;99.90;;;;;;4990171;28;20470;-69
2021/08/24 01:01:58;;;;;;;2.10;2.00;;;17.80;99.90;;;;;;5003628;28;20468;-69
2021/08/24 01:04:26;;;;;;;2.87;2.10;;;17.80;99.90;;;;;;5003002;28;20221;-69
2021/08/24 01:07:19;;;;;;;3.33;2.80;;;17.80;99.90;;;;;;4976854;28;20557;-68
2021/08/24 01:09:45;;;;;;;3.00;2.67;;;17.80;99.90;;;;;;5001179;28;20513;-70
2021/08/24 01:12:32;;;;;;;2.40;2.20;;;17.80;99.90;;;;;;4994437;28;20570;-70
2021/08/24 01:15:00;;;;;;;3.60;2.73;;;17.70;99.90;;;;;;4984102;28;20691;-69
2021/08/24 01:17:33;;;;;;;2.60;2.40;;;17.70;99.90;;;;;;5003038;28;20834;-70
2021/08/24 01:20:30;;;;;;;2.80;2.60;;;17.70;99.90;;;;;;5049334;28;20478;-69
2021/08/24 01:23:34;;;;;;;3.73;3.10;;;17.70;99.90;;;;;;4991068;28;20839;-70
2021/08/24 01:26:20;;;;;;;2.73;2.53;;;17.70;99.90;;;;;;4986153;28;20491;-69
2021/08/24 01:29:14;;;;;;;3.77;2.90;;;17.70;99.90;;;;;;5006785;28;20460;-69
2021/08/24 01:31:58;;;;;;;2.57;2.37;;;17.60;99.90;;;;;;5054353;28;20976;-69
2021/08/24 01:34:42;;;;;;;2.70;2.40;;;17.60;99.90;;;;;;5011071;28;20487;-69
2021/08/24 01:37:17;;;;;;;4.07;2.90;;;17.60;99.90;;;;;;4988516;28;20460;-69
2021/08/24 01:39:49;;;;;;;4.13;2.70;;;17.60;99.90;;;;;;4995187;28;20459;-69
2021/08/24 01:42:18;;;;;;;2.20;2.00;;;17.60;99.90;;;;;;5065113;28;20451;-69
2021/08/24 01:45:15;;;;;;;2.27;1.80;;;17.50;99.90;;;;;;5015282;28;20455;-69
2021/08/24 01:47:46;;;;;;;2.03;1.90;;;17.50;99.90;;;;;;5019175;28;20457;-70
2021/08/24 01:50:15;;;;;;;2.90;2.60;;;17.50;99.90;;;;;;4990783;28;20598;-70
2021/08/24 01:52:55;;;;;;;2.57;2.10;;;17.40;99.90;;;;;;5021177;28;20483;-69
2021/08/24 01:55:32;;;;;;;3.83;2.93;;;17.40;99.90;;;;;;4988590;28;20853;-70
2021/08/24 01:58:06;;;;;;;3.03;2.10;;;17.40;99.90;;;;;;4976497;28;20489;-69
2021/08/24 02:00:35;;;;;;;3.00;2.20;;;17.40;99.90;;;;;;4969688;28;20460;-69
2021/08/24 02:03:05;;;;;;;2.83;2.23;;;17.40;99.90;;;;;;4987031;28;20456;-69
2021/08/24 02:05:40;;;;;;;6.40;2.60;;;17.30;99.90;;;;;;4995260;28;20459;-69
2021/08/24 02:08:11;;;;;;;2.30;2.03;;;17.30;99.90;;;;;;4983365;28;20524;-70
2021/08/24 02:10:39;;;;;;;3.13;2.70;;;17.30;99.90;;;;;;4976312;28;20463;-70
2021/08/24 02:13:05;;;;;;;4.77;2.57;;;17.30;99.90;;;;;;4978139;28;20562;-69
2021/08/24 02:15:43;;;;;;;2.50;2.10;;;17.20;99.90;;;;;;5089672;28;20465;-69
2021/08/24 02:18:15;;;;;;;3.20;2.20;;;17.20;99.90;;;;;;5089019;28;20891;-70
2021/08/24 02:21:03;;;;;;;2.47;2.27;;;17.20;99.90;;;;;;5104871;27;20454;-69
2021/08/24 02:23:31;;;;;;;5.37;2.10;;;17.20;99.90;;;;;;5094863;28;20814;-69
2021/08/24 02:26:02;;;;;;;3.37;2.53;;;17.10;99.90;;;;;;5097828;27;20450;-69
2021/08/24 02:28:32;;;;;;;2.83;2.07;;;17.10;99.90;;;;;;5025969;28;20451;-69
2021/08/24 02:31:11;;;;;;;2.20;2.00;;;17.10;99.90;;;;;;4994901;28;20464;-68
2021/08/24 02:33:46;;;;;;;3.27;2.20;;;17.10;99.90;;;;;;4995413;28;20456;-68
2021/08/24 02:36:14;;;;;;;1.90;1.70;;;17.10;99.90;;;;;;4972471;28;20458;-70
2021/08/24 02:38:47;;;;;;;3.70;2.00;;;17.00;99.90;;;;;;5033545;28;20861;-69
2021/08/24 02:41:26;;;;;;;1.87;1.77;;;17.00;99.90;;;;;;4988322;28;20513;-70
2021/08/24 02:44:00;;;;;;;2.70;2.10;;;16.90;99.90;;;;;;4988846;28;20589;-69
2021/08/24 02:46:38;;;;;;;3.20;1.90;;;16.90;99.90;;;;;;4992005;28;20454;-69
2021/08/24 02:49:08;;;;;;;2.30;1.80;;;16.90;99.90;;;;;;5005973;28;20547;-69
2021/08/24 02:51:34;;;;;;;2.30;2.10;;;16.90;99.90;;;;;;5018598;28;20478;-69
2021/08/24 02:54:06;;;;;;;2.93;2.07;;;16.90;99.90;;;;;;5003697;28;20891;-68
2021/08/24 02:56:32;;;;;;;2.90;1.70;;;16.90;99.90;;;;;;5005816;28;21012;-69
2021/08/24 02:58:58;;;;;;;1.97;1.83;;;16.90;99.90;;;;;;4978807;28;20456;-69
2021/08/24 03:01:23;;;;;;;2.20;2.00;;;16.80;99.90;;;;;;5012265;28;20333;-69
2021/08/24 03:03:49;;;;;;;2.00;1.77;;;16.80;99.90;;;;;;5012056;28;20217;-69
2021/08/24 03:06:15;;;;;;;5.57;1.97;;;16.80;99.90;;;;;;4983044;28;20229;-69
2021/08/24 03:08:41;;;;;;;2.30;1.70;;;16.80;99.90;;;;;;5073852;28;20323;-69
2021/08/24 03:11:09;;;;;;;2.00;1.70;;;16.80;99.90;;;;;;5020212;28;20217;-69
2021/08/24 03:13:47;;;;;;;1.70;1.47;;;16.70;99.90;;;;;;5002102;28;20503;-69
2021/08/24 03:16:23;;;;;;;4.10;1.50;;;16.70;99.90;;;;;;5058793;28;20465;-70
2021/08/24 03:19:01;;;;;;;1.67;1.57;;;16.60;99.90;;;;;;5025582;28;20490;-70
2021/08/24 03:21:32;;;;;;;1.73;1.50;;;16.60;99.90;;;;;;5021833;28;20482;-69
2021/08/24 03:23:58;;;;;;;2.03;1.80;;;16.60;99.90;;;;;;5041819;28;20455;-69
2021/08/24 03:26:28;;;;;;;1.87;1.77;;;16.50;99.90;;;;;;5006923;28;20467;-69
2021/08/24 03:28:55;;;;;;;1.97;1.87;;;16.50;99.90;;;;;;5008966;28;20455;-68
2021/08/24 03:31:21;;;;;;;1.90;1.60;;;16.50;99.90;;;;;;5014889;28;21047;-69
2021/08/24 03:33:47;;;;;;;3.27;1.60;;;16.50;99.90;;;;;;5064787;28;20457;-69
2021/08/24 03:36:14;;;;;;;2.17;1.70;;;16.50;99.90;;;;;;5106524;28;20526;-70
2021/08/24 03:38:40;;;;;;;2.17;1.97;;;16.50;99.90;;;;;;5092136;28;20444;-70
2021/08/24 03:41:08;;;;;;;1.70;1.57;;;16.40;99.90;;;;;;5007905;28;20461;-70
2021/08/24 03:43:34;;;;;;;1.73;1.63;;;16.40;99.90;;;;;;4997211;28;20455;-69
2021/08/24 03:46:00;;;;;;;2.57;1.70;;;16.40;99.90;;;;;;4985348;28;20495;-69
2021/08/24 03:48:26;;;;;;;1.83;1.73;;;16.30;99.90;;;;;;5004409;28;20510;-68
2021/08/24 03:50:51;;;;;;;2.70;1.80;;;16.30;99.90;;;;;;4998607;28;20224;-69
2021/08/24 03:53:17;;;;;;;2.90;2.20;;;16.30;99.90;;;;;;5005936;28;20286;-69
2021/08/24 03:55:43;;;;;;;2.00;1.90;;;16.30;99.90;;;;;;5012981;28;20225;-68
2021/08/24 03:58:08;;;;;;;2.47;1.77;;;16.30;99.90;;;;;;4989947;28;20233;-69
2021/08/24 04:00:34;;;;;;;3.23;2.10;;;16.30;99.90;;;;;;5041678;28;20244;-69
2021/08/24 04:03:00;;;;;;;2.07;1.47;;;16.30;99.90;;;;;;5026392;28;20284;-69
2021/08/24 04:05:26;;;;;;;1.67;1.57;;;16.20;99.90;;;;;;5022670;28;21649;-70
2021/08/24 04:07:53;;;;;;;2.40;1.87;;;16.20;99.90;;;;;;4986745;28;20475;-69
2021/08/24 04:10:18;;;;;;;3.10;2.20;;;16.20;99.90;;;;;;5048618;28;20214;-69
2021/08/24 04:12:45;;;;;;;2.80;2.03;;;16.20;99.90;;;;;;5090865;28;20824;-69
2021/08/24 04:15:11;;;;;;;3.33;2.50;;;16.20;99.90;;;;;;5088690;28;20961;-69
2021/08/24 04:17:38;;;;;;;1.50;1.40;;;16.10;99.90;;;;;;5019985;28;20471;-69
2021/08/24 04:20:06;;;;;;;2.03;1.83;;;16.10;99.90;;;;;;4988462;28;20232;-69
2021/08/24 04:22:33;;;;;;;2.40;2.20;;;16.10;99.90;;;;;;5001494;27;20467;-69
2021/08/24 04:24:59;;;;;;;6.90;1.90;;;16.00;99.90;;;;;;4988400;28;20996;-70
2021/08/24 04:27:24;;;;;;;1.47;1.27;;;16.00;99.90;;;;;;4995584;28;20477;-69
2021/08/24 04:29:51;;;;;;;2.17;1.97;;;16.00;99.90;;;;;;4989850;28;20230;-70
2021/08/24 04:32:25;;;;;;;1.67;1.50;;;16.00;99.90;;;;;;5010827;28;20473;-69
2021/08/24 04:34:51;;;;;;;7.33;1.93;;;16.00;99.90;;;;;;4993809;28;20699;-69
2021/08/24 04:37:16;;;;;;;2.63;1.30;;;16.00;99.90;;;;;;5072468;27;20459;-69
2021/08/24 04:39:42;;;;;;;2.90;1.77;;;16.00;99.90;;;;;;5090680;28;20467;-69
2021/08/24 04:42:08;;;;;;;2.00;1.60;;;16.00;99.90;;;;;;5085872;28;20217;-70
2021/08/24 04:44:34;;;;;;;1.57;1.43;;;16.00;99.90;;;;;;4988476;28;20225;-69
2021/08/24 04:46:59;;;;;;;2.00;1.70;;;16.00;99.90;;;;;;4987911;28;20737;-69
2021/08/24 04:49:25;;;;;;;3.17;1.93;;;15.90;99.90;;;;;;5002382;28;20218;-69
2021/08/24 04:51:51;;;;;;;1.83;1.73;;;15.90;99.90;;;;;;4987556;28;20274;-69
2021/08/24 04:54:17;;;;;;;2.03;1.70;;;15.90;99.90;;;;;;4977925;28;20469;-69
2021/08/24 04:56:43;;;;;;;1.63;1.50;;;15.80;99.90;;;;;;5003990;28;20229;-69
2021/08/24 04:59:10;;;;;;;1.90;1.80;;;15.70;99.90;;;;;;4985717;28;20228;-69
2021/08/24 05:01:36;;;;;;;1.90;1.50;;;15.70;99.90;;;;;;5003112;28;20535;-69
2021/08/24 05:04:01;;;;;;;1.77;1.67;;;15.70;99.90;;;;;;4987589;28;21040;-68
2021/08/24 05:06:27;;;;;;;2.50;1.67;;;15.70;99.90;;;;;;4993430;28;20222;-69
2021/08/24 05:08:53;;;;;;;1.57;1.47;;;15.70;99.90;;;;;;4971414;28;20695;-68
2021/08/24 05:11:18;;;;;;;1.50;1.40;;;15.70;99.90;;;;;;5000339;28;20248;-69
2021/08/24 05:13:44;;;;;;;2.03;1.60;;;15.70;99.90;;;;;;4987908;28;20225;-69
2021/08/24 05:16:11;;;;;;;2.20;1.80;;;15.70;99.90;;;;;;4986076;28;20224;-70
2021/08/24 05:18:37;;;;;;;2.20;1.87;;;15.70;99.90;;;;;;4987625;28;20466;-69
2021/08/24 05:21:13;;;;;;;2.23;1.90;;;15.70;99.90;;;;;;5003970;28;20460;-69
2021/08/24 05:23:40;;;;;;;2.03;1.47;;;15.70;99.90;;;;;;5011338;27;20507;-68
2021/08/24 05:26:12;;;;;;;2.60;1.50;;;15.70;99.90;;;;;;5103316;27;20459;-69
2021/08/24 05:28:38;;;;;;;2.50;2.30;;;15.70;99.90;;;;;;5005848;28;20463;-69
2021/08/24 05:31:04;;;;;;;2.37;2.07;;;15.70;99.90;;;;;;4987147;28;20510;-68
2021/08/24 05:33:31;;;;;;;1.97;1.70;;;15.70;99.90;;;;;;4981760;28;20457;-69
2021/08/24 05:36:00;;;;;;;2.53;1.73;;;15.70;99.90;;;;;;4982383;28;20828;-69
2021/08/24 05:38:28;;;;;;;2.23;2.03;;;15.70;99.90;;;;;;4981001;28;20441;-70
2021/08/24 05:40:55;;;;;;;1.70;1.60;;;15.70;99.90;;;;;;5002097;28;20449;-70
2021/08/24 05:43:22;;;;;;;2.57;2.37;;;15.70;99.90;;;;;;4984618;28;20578;-69
2021/08/24 05:45:59;;;;;;;4.37;2.83;;;15.70;99.90;;;;;;4982222;28;20462;-70
2021/08/24 05:48:26;;;;;;;2.27;2.07;;;15.70;99.90;;;;;;5000087;28;20456;-70
2021/08/24 05:50:51;;;;;;;2.63;2.00;;;15.70;99.90;;;;;;5001237;28;20483;-69
2021/08/24 05:53:17;;;;;;;3.27;2.10;;;15.70;99.90;;;;;;4984163;28;20479;-70
2021/08/24 05:55:43;;;;;;;2.73;2.00;;;15.70;99.90;;;;;;5001021;28;20304;-70
2021/08/24 05:58:08;;;;;;;2.20;1.77;;;15.60;99.90;;;;;;5000020;28;20338;-69
2021/08/24 06:00:35;;;;;;;2.23;2.03;;;15.60;99.90;;;;;;5001401;28;20228;-70
2021/08/24 06:03:01;;;;;;;2.03;1.80;;;15.60;99.90;;;;;;4985707;28;20225;-70
2021/08/24 06:05:27;;;;;;;2.93;2.00;;;15.60;99.90;;;;;;5001341;28;20455;-69
2021/08/24 06:07:52;;;;;;;3.03;1.60;;;15.60;99.90;;;;;;4985826;28;20222;-69
2021/08/24 06:10:18;;;;;;;3.13;1.60;;;15.50;99.90;;;;;;4998905;28;20217;-70
2021/08/24 06:12:45;;;;;;;3.70;2.00;;;15.50;99.90;;;;;;5001901;28;20316;-69
2021/08/24 06:15:11;;;;;;;5.03;1.80;;;15.50;99.90;;;;;;4983313;28;20253;-69
2021/08/24 06:17:36;;;;;;;1.93;1.77;;;15.60;99.90;;;;;;5001680;28;20468;-70
2021/08/24 06:20:03;;;;;;;1.80;1.70;;;15.60;99.90;;;;;;4985548;28;20464;-69
2021/08/24 06:22:29;;;;;;;2.97;2.10;;;15.60;99.90;;;;;;4999162;28;20221;-70
2021/08/24 06:24:54;;;;;;;3.13;1.70;;;15.70;99.90;;;;;;4987305;28;20969;-70
2021/08/24 06:27:21;;;;;;;1.80;1.70;;;15.70;99.90;;;;;;4999416;28;20662;-69
2021/08/24 06:29:46;;;;;;;1.73;1.60;;;15.80;99.90;;;;;;5002369;28;20547;-69
2021/08/24 06:32:40;;;;;;;2.10;1.90;;;15.80;99.90;;;;;;4999423;28;20763;-69
2021/08/24 06:35:07;;;;;;;2.10;1.90;;;15.80;99.90;;;;;;4984585;28;20304;-69
2021/08/24 06:37:33;;;;;;;2.17;1.70;;;15.80;99.90;;;;;;5026323;28;20460;-70
2021/08/24 06:39:58;;;;;;;3.53;1.70;;;15.80;99.90;;;;;;5008239;28;20539;-69
2021/08/24 06:42:24;;;;;;;2.43;1.83;;;15.80;99.90;;;;;;4986535;28;20567;-70
2021/08/24 06:44:50;;;;;;;1.87;1.50;;;15.90;99.90;;;;;;5001499;28;20253;-70
2021/08/24 06:47:16;;;;;;;3.87;1.60;;;15.90;99.90;;;;;;4976366;27;20225;-69
2021/08/24 06:49:42;;;;;;;3.73;1.50;;;16.00;99.90;;;;;;5057198;28;20218;-70
2021/08/24 06:52:08;;;;;;;1.77;1.40;;;16.10;99.90;;;;;;5099014;28;20832;-70
2021/08/24 06:54:34;;;;;;;2.00;1.90;;;16.10;99.90;;;;;;5087709;28;20239;-68
2021/08/24 06:57:02;;;;;;;1.90;1.80;;;16.20;99.90;;;;;;5046325;28;20279;-69
2021/08/24 06:59:28;;;;;;;1.70;1.60;;;16.20;99.90;;;;;;5005747;28;21060;-70
2021/08/24 07:01:54;;;;;;;1.87;1.77;;;16.20;99.90;;;;;;5007686;28;20455;-69
2021/08/24 07:04:20;;;;;;;2.53;1.90;;;16.20;99.90;;;;;;5006037;28;20792;-70
2021/08/24 07:06:50;;;;;;;1.53;1.43;;;16.30;99.90;;;;;;5066323;28;20727;-70
2021/08/24 07:09:17;;;;;;;2.30;1.60;;;16.30;99.90;;;;;;4993947;28;20225;-69
2021/08/24 07:11:43;;;;;;;1.50;1.40;;;16.30;99.90;;;;;;4984381;28;20500;-69
2021/08/24 07:14:09;;;;;;;2.23;1.47;;;16.40;99.90;;;;;;5000757;28;20510;-70
2021/08/24 07:16:35;;;;;;;1.97;1.80;;;16.50;99.90;;;;;;4994004;28;20240;-70
2021/08/24 07:19:00;;;;;;;2.33;2.00;;;16.50;99.90;;;;;;5003880;28;20583;-70
2021/08/24 07:21:26;;;;;;;2.70;1.50;;;16.60;99.90;;;;;;5027546;28;20225;-70
2021/08/24 07:23:53;;;;;;;6.50;1.53;;;16.60;99.90;;;;;;5060396;28;20689;-69
2021/08/24 07:26:20;;;;;;;1.77;1.67;;;16.60;99.90;;;;;;5021880;28;20456;-70
2021/08/24 07:28:45;;;;;;;2.43;1.47;;;16.60;99.90;;;;;;5098156;28;20492;-70
2021/08/24 07:31:12;;;;;;;1.60;1.50;;;16.70;99.90;;;;;;5071283;28;20503;-69
2021/08/24 07:33:38;;;;;;;1.50;1.40;;;16.80;99.90;;;;;;5054004;28;20217;-69
2021/08/24 07:36:04;;;;;;;1.23;1.13;;;16.90;99.90;;;;;;5022233;28;20517;-69
2021/08/24 07:38:30;;;;;;;1.83;1.57;;;16.80;99.90;;;;;;4992895;28;20456;-69
2021/08/24 07:40:57;;;;;;;1.80;1.70;;;16.90;99.90;;;;;;5012422;28;20986;-69
2021/08/24 07:43:23;;;;;;;2.50;1.70;;;16.90;99.90;;;;;;5060413;28;20301;-70
2021/08/24 07:45:49;;;;;;;2.03;1.67;;;16.90;99.90;;;;;;5075719;28;20448;-70
2021/08/24 07:48:15;;;;;;;1.73;1.60;;;17.00;99.90;;;;;;4985840;28;20527;-70
2021/08/24 07:50:40;;;;;;;4.10;1.80;;;17.10;99.90;;;;;;5013239;28;20315;-70
2021/08/24 07:53:06;;;;;;;2.30;1.60;;;17.20;99.90;;;;;;5048028;28;20225;-70
2021/08/24 07:55:34;;;;;;;2.40;1.70;;;17.20;99.90;;;;;;5024503;28;20224;-69
2021/08/24 07:58:01;;;;;;;1.47;1.33;;;17.30;99.90;;;;;;5036105;28;20228;-69
2021/08/24 08:00:26;;;;;;;1.83;1.53;;;17.40;99.90;;;;;;5012094;28;20464;-70
2021/08/24 08:02:52;;;;;;;1.63;1.33;;;17.40;99.90;;;;;;4983907;28;20457;-69
2021/08/24 08:05:18;;;;;;;2.30;1.73;;;17.50;99.90;;;;;;4963714;28;20227;-70
2021/08/24 08:07:44;;;;;;;1.80;1.23;;;17.60;99.90;;;;;;4972333;28;20222;-70
2021/08/24 08:10:11;;;;;;;2.37;1.80;;;17.60;99.90;;;;;;4974204;28;20226;-70
2021/08/24 08:12:36;;;;;;;2.13;1.60;;;17.60;99.90;;;;;;4987680;28;20487;-70
2021/08/24 08:15:04;;;;;;;1.53;1.40;;;17.70;99.90;;;;;;4998773;28;20984;-70
2021/08/24 08:17:30;;;;;;;1.70;1.50;;;17.80;99.90;;;;;;5004398;28;20274;-70
2021/08/24 08:19:55;;;;;;;1.97;1.60;;;17.90;99.90;;;;;;5000923;28;20884;-68
2021/08/24 08:22:21;;;;;;;1.73;1.63;;;17.90;99.90;;;;;;4995798;28;20253;-68
2021/08/24 08:24:48;;;;;;;2.00;1.80;;;18.00;99.90;;;;;;4999658;28;20745;-70
2021/08/24 08:27:14;;;;;;;5.00;1.70;;;18.10;99.90;;;;;;4979935;28;20496;-69
2021/08/24 08:29:39;;;;;;;1.63;1.53;;;18.20;99.90;;;;;;4999550;28;20460;-68
2021/08/24 08:32:10;;;;;;;2.30;2.07;;;18.20;99.90;;;;;;4999558;28;20225;-69
2021/08/24 08:34:37;;;;;;;1.43;1.33;;;18.20;99.90;;;;;;5099587;27;20225;-69
2021/08/24 08:37:02;;;;;;;1.63;1.40;;;18.30;99.90;;;;;;4986997;28;20533;-70
2021/08/24 08:39:29;;;;;;;1.60;1.50;;;18.40;99.90;;;;;;4984523;28;20478;-70
2021/08/24 08:42:05;;;;;;;1.13;1.10;;;18.40;99.90;;;;;;4983755;28;20540;-70
2021/08/24 08:44:54;;;;;;;1.77;1.40;;;18.30;99.90;;;;;;4997942;28;20228;-69
2021/08/24 08:47:26;;;;;;;2.40;1.90;;;18.40;99.90;;;;;;5000955;28;20584;-69
2021/08/24 08:50:13;;;;;;;1.40;1.30;;;18.40;99.90;;;;;;5003104;28;20460;-70
2021/08/24 08:53:02;;;;;;;2.57;2.13;;;18.40;99.90;;;;;;5113916;27;20990;-70
2021/08/24 08:55:40;;;;;;;1.90;1.50;;;18.40;99.90;;;;;;5068555;27;20456;-70
2021/08/24 08:58:22;;;;;;;5.90;2.00;;;18.50;99.90;;;;;;5095833;27;20459;-70
2021/08/24 09:00:50;;;;;;;3.40;1.70;;;18.60;99.90;;;;;;5070811;28;20542;-70
2021/08/24 09:03:47;;;;;;;2.40;2.17;;;18.60;99.90;;;;;;5070955;28;20483;-70
2021/08/24 09:06:17;;;;;;;1.93;1.83;;;18.60;99.90;;;;;;5017022;28;20488;-70
2021/08/24 09:08:43;;;;;;;2.03;1.77;;;18.70;99.90;;;;;;4984497;28;20488;-70
2021/08/24 09:11:10;;;;;;;2.37;1.80;;;18.70;99.90;;;;;;5052038;28;20472;-70
2021/08/24 09:13:53;;;;;;;2.00;1.80;;;18.70;99.90;;;;;;5088343;28;20459;-68
2021/08/24 09:16:28;;;;;;;2.50;2.00;;;18.80;99.90;;;;;;5052452;28;20548;-69
2021/08/24 09:19:01;;;;;;;3.07;2.30;;;18.90;99.90;;;;;;4967132;28;20485;-69
2021/08/24 09:21:33;;;;;;;4.30;1.93;;;19.00;99.90;;;;;;4975916;28;20464;-70
2021/08/24 09:24:04;;;;;;;2.10;1.50;;;19.00;99.90;;;;;;5013441;28;20463;-70
2021/08/24 09:26:50;;;;;;;2.80;1.87;;;19.00;99.90;;;;;;5098584;27;20456;-70
2021/08/24 09:29:18;;;;;;;2.10;1.87;;;19.00;99.90;;;;;;5103171;27;21116;-69
2021/08/24 09:31:45;;;;;;;3.23;2.60;;;19.10;99.90;;;;;;5083635;28;20476;-70
2021/08/24 09:34:14;;;;;;;3.77;2.73;;;19.30;99.90;;;;;;5046841;28;20886;-69
2021/08/24 09:36:41;;;;;;;6.33;2.90;;;19.30;99.90;;;;;;5023641;28;21065;-69
2021/08/24 09:39:07;;;;;;;3.43;2.40;;;19.30;99.90;;;;;;4971620;28;20547;-70
2021/08/24 09:41:35;;;;;;;2.80;2.47;;;19.30;99.90;;;;;;4983177;28;20456;-68
2021/08/24 09:44:24;;;;;;;5.27;2.87;;;19.30;99.90;;;;;;5003994;28;20838;-70
2021/08/24 09:47:04;;;;;;;2.83;1.90;;;19.30;99.90;;;;;;4974257;28;20472;-69
2021/08/24 09:49:35;;;;;;;2.37;2.00;;;19.40;99.90;;;;;;4977406;28;20984;-70
2021/08/24 09:52:03;;;;;;;2.77;2.33;;;19.50;99.90;;;;;;4977231;28;20469;-69
2021/08/24 09:54:49;;;;;;;2.53;1.73;;;19.60;99.90;;;;;;4980949;28;20455;-70
2021/08/24 09:57:49;;;;;;;2.40;2.03;;;19.60;99.90;;;;;;4994749;28;20864;-69
2021/08/24 10:00:20;;;;;;;2.50;1.80;;;19.70;99.90;;;;;;5019747;28;20551;-68
2021/08/24 10:02:50;;;;;;;3.00;1.77;;;19.70;99.90;;;;;;5002810;28;20463;-70
2021/08/24 10:05:21;;;;;;;2.43;2.00;;;19.60;99.90;;;;;;4993625;28;20552;-70
2021/08/24 10:07:50;;;;;;;2.17;1.97;;;19.70;99.90;;;;;;4960496;28;20565;-70
2021/08/24 10:10:24;;;;;;;2.33;1.87;;;19.80;99.90;;;;;;4986614;28;20480;-69
2021/08/24 10:12:53;;;;;;;2.10;1.87;;;19.90;99.90;;;;;;4980493;28;20873;-70
2021/08/24 10:15:33;;;;;;;2.17;1.83;;;20.00;99.90;;;;;;4992131;28;20465;-71
2021/08/24 10:18:10;;;;;;;3.07;2.00;;;20.10;99.90;;;;;;5086505;28;20471;-70
2021/08/24 10:20:39;;;;;;;2.33;2.07;;;20.30;99.90;;;;;;5056866;28;20465;-69
2021/08/24 10:23:13;;;;;;;3.07;2.10;;;20.20;99.90;;;;;;4974571;28;20867;-70
2021/08/24 10:25:51;;;;;;;2.10;1.90;;;20.20;99.90;;;;;;4980192;28;21052;-69
2021/08/24 10:28:27;;;;;;;2.37;1.80;;;20.30;99.90;;;;;;4993887;28;20981;-69
2021/08/24 10:30:52;;;;;;;1.83;1.40;;;20.30;99.90;;;;;;4967305;28;20496;-69
2021/08/24 10:33:53;;;;;;;2.10;1.90;;;20.30;99.90;;;;;;4998625;28;20519;-69
2021/08/24 10:37:13;;;;;;;2.70;2.00;;;20.50;99.90;;;;;;4962917;28;20718;-69
2021/08/24 10:39:39;;;;;;;4.13;2.10;;;20.70;99.90;;;;;;4966502;28;20459;-70
2021/08/24 10:42:27;;;;;;;2.70;2.50;;;20.90;99.90;;;;;;5012067;28;20472;-69
2021/08/24 10:44:59;;;;;;;2.10;1.90;;;20.80;99.90;;;;;;4981609;28;20226;-71
2021/08/24 10:47:34;;;;;;;2.30;1.97;;;20.70;99.90;;;;;;4988499;28;20468;-69
2021/08/24 10:50:02;;;;;;;2.70;2.20;;;20.80;99.90;;;;;;4989482;28;20502;-70
2021/08/24 10:52:56;;;;;;;3.27;2.03;;;21.00;99.90;;;;;;5002423;28;20466;-70
2021/08/24 10:55:30;;;;;;;2.90;2.10;;;21.10;99.90;;;;;;5079908;27;20486;-70
2021/08/24 10:57:59;;;;;;;2.00;1.90;;;21.30;99.90;;;;;;5071500;27;20505;-69
2021/08/24 11:00:35;;;;;;;3.27;2.70;;;21.40;99.90;;;;;;4996966;28;20588;-70
2021/08/24 11:03:18;;;;;;;4.23;2.57;;;21.40;99.90;;;;;;5040583;28;20507;-68
2021/08/24 11:06:16;;;;;;;4.93;2.50;;;21.40;99.90;;;;;;5015237;28;20518;-69
2021/08/24 11:09:06;;;;;;;2.60;2.00;;;21.20;99.90;;;;;;5004410;28;20476;-69
2021/08/24 11:11:44;;;;;;;5.37;2.57;;;21.20;99.90;;;;;;4978104;28;20459;-70
2021/08/24 11:14:43;;;;;;;2.57;2.37;;;21.20;99.90;;;;;;4995969;28;20471;-69
2021/08/24 11:17:34;;;;;;;7.67;3.23;;;21.30;99.90;;;;;;4996307;28;20485;-70
2021/08/24 11:20:08;;;;;;;6.23;2.57;;;21.30;99.90;;;;;;5000550;28;20460;-69
2021/08/24 11:22:58;;;;;;;2.93;2.70;;;21.30;99.90;;;;;;5000832;28;20552;-70
2021/08/24 11:25:45;;;;;;;3.10;2.13;;;21.30;99.90;;;;;;4984192;28;20457;-70
2021/08/24 11:28:29;;;;;;;2.43;2.23;;;21.40;99.90;;;;;;4981093;28;20449;-70
2021/08/24 11:31:10;;;;;;;4.27;2.80;;;21.40;99.90;;;;;;4994851;28;20452;-71
2021/08/24 11:33:49;;;;;;;3.20;2.87;;;21.50;99.90;;;;;;5006290;28;20479;-69
2021/08/24 11:36:23;;;;;;;3.20;2.80;;;21.50;99.90;;;;;;5001286;28;20472;-70
2021/08/24 11:38:59;;;;;;;2.60;2.40;;;21.60;99.90;;;;;;4996991;28;20468;-71
2021/08/24 11:41:26;;;;;;;2.70;2.47;;;21.60;99.90;;;;;;4985794;28;20460;-71
2021/08/24 11:44:13;;;;;;;4.20;2.60;;;21.70;99.90;;;;;;5004863;28;20461;-70
2021/08/24 11:46:54;;;;;;;3.97;2.60;;;21.70;99.90;;;;;;5003206;28;20475;-71
2021/08/24 11:49:52;;;;;;;3.30;2.40;;;21.80;99.90;;;;;;4985981;28;21035;-70
2021/08/24 11:52:41;;;;;;;2.80;2.60;;;21.80;99.90;;;;;;4984422;28;20480;-70
2021/08/24 11:55:23;;;;;;;3.07;2.80;;;21.60;99.90;;;;;;4979985;28;20998;-70
2021/08/24 11:58:02;;;;;;;5.03;3.00;;;21.50;99.90;;;;;;4977226;28;20500;-71
2021/08/24 12:00:29;;;;;;;4.23;2.93;;;21.50;99.90;;;;;;4977343;28;21007;-70
2021/08/24 12:02:55;;;;;;;3.63;2.43;;;21.60;99.90;;;;;;4985308;28;20468;-70
2021/08/24 12:05:31;;;;;;;2.77;2.50;;;21.60;99.90;;;;;;4982655;28;20464;-70
2021/08/24 12:08:04;;;;;;;3.20;2.90;;;21.40;99.90;;;;;;5001784;28;20543;-69
2021/08/24 12:11:05;;;;;;;3.90;2.43;;;21.50;99.90;;;;;;4974465;28;20469;-70
2021/08/24 12:13:34;;;;;;;3.30;3.00;;;21.50;99.90;;;;;;4998480;28;20468;-70
2021/08/24 12:16:23;;;;;;;5.63;3.37;;;21.50;99.90;;;;;;4985032;28;20471;-69
2021/08/24 12:19:10;;;;;;;6.90;3.63;;;21.40;99.90;;;;;;4982156;28;20480;-70
2021/08/24 12:21:47;;;;;;;5.07;3.00;;;21.40;99.90;;;;;;5000175;28;20898;-69
2021/08/24 12:24:30;;;;;;;4.97;3.20;;;21.40;99.90;;;;;;4997477;28;20472;-70
2021/08/24 12:26:55;;;;;;;3.60;3.00;;;21.40;99.90;;;;;;4997254;28;20468;-70
2021/08/24 12:29:41;;;;;;;3.57;3.27;;;21.40;99.90;;;;;;4999882;28;20464;-70
2021/08/24 12:32:11;;;;;;;3.77;3.17;;;21.40;99.90;;;;;;4986319;28;20733;-71
2021/08/24 12:34:40;;;;;;;5.33;3.03;;;21.40;99.90;;;;;;4983697;28;20784;-69
2021/08/24 12:37:29;;;;;;;3.97;3.30;;;21.50;99.90;;;;;;4985267;28;20574;-70
2021/08/24 12:40:21;;;;;;;4.93;3.17;;;21.50;99.90;;;;;;5000032;28;20543;-70
2021/08/24 12:43:22;;;;;;;3.43;3.13;;;21.50;99.90;;;;;;4995512;28;20459;-70
2021/08/24 12:45:47;;;;;;;3.07;2.77;;;21.50;99.90;;;;;;5002950;28;20460;-70
2021/08/24 12:48:19;;;;;;;4.70;4.00;;;21.50;99.90;;;;;;5001072;28;20456;-70
2021/08/24 12:50:45;;;;;;;4.13;2.83;;;21.50;99.90;;;;;;4997619;28;20228;-70
2021/08/24 12:53:45;;;;;;;7.40;3.90;;;21.60;99.90;;;;;;4989093;28;20476;-70
2021/08/24 12:56:32;;;;;;;3.57;3.27;;;21.60;99.90;;;;;;4987775;28;20233;-70
2021/08/24 12:59:02;;;;;;;3.70;3.40;;;21.60;99.90;;;;;;4983949;28;20563;-70
2021/08/24 13:01:28;;;;;;;5.27;3.70;;;21.60;99.90;;;;;;5000019;28;20614;-70
2021/08/24 13:04:12;;;;;;;3.87;3.50;;;21.50;99.90;;;;;;5002781;28;20993;-69
2021/08/24 13:06:40;;;;;;;3.70;3.40;;;21.60;99.90;;;;;;5001602;28;20460;-70
2021/08/24 13:09:18;;;;;;;4.47;4.03;;;21.60;99.90;;;;;;5002755;28;20958;-70
2021/08/24 13:12:03;;;;;;;3.80;3.50;;;21.70;99.90;;;;;;4986357;28;20495;-70